createdAt,value
2017-02-15T00:00:31.044Z,0
2017-02-15T00:01:44.175Z,0
2017-02-15T00:02:57.260Z,0
2017-02-15T00:04:10.031Z,0
2017-02-15T00:05:22.805Z,0
2017-02-15T00:06:35.915Z,0
2017-02-15T00:07:49.019Z,0
2017-02-15T00:09:02.116Z,0
2017-02-15T00:10:14.840Z,0
2017-02-15T00:11:27.951Z,0
2017-02-15T00:12:41.070Z,0
2017-02-15T00:13:54.216Z,0
2017-02-15T00:15:07.308Z,0
2017-02-15T00:16:20.008Z,0
2017-02-15T00:17:33.138Z,0
2017-02-15T00:18:46.253Z,0
2017-02-15T00:19:59.403Z,0
2017-02-15T00:21:12.144Z,0
2017-02-15T00:22:25.281Z,0
2017-02-15T00:23:38.351Z,0
2017-02-15T00:24:51.436Z,0
2017-02-15T00:26:04.544Z,0
2017-02-15T00:27:17.263Z,0
2017-02-15T00:28:30.327Z,0
2017-02-15T00:29:43.475Z,0
2017-02-15T00:30:56.632Z,0
2017-02-15T00:32:09.705Z,0
2017-02-15T00:33:22.807Z,0
2017-02-15T00:34:35.883Z,0
2017-02-15T00:35:49.003Z,0
2017-02-15T00:37:01.749Z,0
2017-02-15T00:38:14.491Z,0
2017-02-15T00:39:27.597Z,0
2017-02-15T00:40:40.558Z,0
2017-02-15T00:41:53.621Z,0
2017-02-15T00:43:06.725Z,0
2017-02-15T00:44:19.457Z,0
2017-02-15T00:45:32.552Z,0
2017-02-15T00:46:45.630Z,0
2017-02-15T00:47:58.761Z,0
2017-02-15T00:49:11.941Z,0
2017-02-15T00:50:25.018Z,0
2017-02-15T00:51:37.739Z,0
2017-02-15T00:52:50.846Z,0
2017-02-15T00:54:03.931Z,0
2017-02-15T00:55:17.008Z,0
2017-02-15T00:56:30.071Z,0
2017-02-15T00:57:43.168Z,0
2017-02-15T00:58:56.262Z,0
2017-02-15T01:00:09.378Z,0
2017-02-15T01:01:22.432Z,0
2017-02-15T01:02:35.126Z,0
2017-02-15T01:03:48.191Z,0
2017-02-15T01:05:01.303Z,0
2017-02-15T01:06:14.407Z,0
2017-02-15T01:07:27.081Z,0
2017-02-15T01:08:40.207Z,0
2017-02-15T01:09:53.244Z,0
2017-02-15T01:11:06.305Z,0
2017-02-15T01:12:19.426Z,0
2017-02-15T01:13:32.490Z,0
2017-02-15T01:14:45.603Z,0
2017-02-15T01:15:58.706Z,0
2017-02-15T01:17:11.803Z,0
2017-02-15T01:18:24.872Z,0
2017-02-15T01:19:37.625Z,0
2017-02-15T01:20:50.757Z,0
2017-02-15T01:22:03.859Z,0
2017-02-15T01:23:16.954Z,0
2017-02-15T01:24:30.051Z,0
2017-02-15T01:25:43.229Z,0
2017-02-15T01:26:56.376Z,0
2017-02-15T01:28:09.513Z,0
2017-02-15T01:29:22.228Z,0
2017-02-15T01:30:34.959Z,0
2017-02-15T01:31:47.685Z,0
2017-02-15T01:33:00.824Z,0
2017-02-15T01:34:13.919Z,0
2017-02-15T01:35:26.990Z,0
2017-02-15T01:36:39.703Z,0
2017-02-15T01:37:52.813Z,0
2017-02-15T01:39:05.952Z,0
2017-02-15T01:40:18.698Z,0
2017-02-15T01:41:31.800Z,0
2017-02-15T01:42:44.914Z,0
2017-02-15T01:43:58.254Z,0
2017-02-15T01:45:11.354Z,0
2017-02-15T01:46:24.452Z,0
2017-02-15T01:47:37.573Z,0
2017-02-15T01:48:50.694Z,0
2017-02-15T01:50:03.787Z,0
2017-02-15T01:51:16.559Z,0
2017-02-15T01:52:29.692Z,0
2017-02-15T01:53:42.825Z,0
2017-02-15T01:54:55.930Z,0
2017-02-15T01:56:09.055Z,0
2017-02-15T01:57:21.763Z,0
2017-02-15T01:58:34.823Z,0
2017-02-15T01:59:47.950Z,0
2017-02-15T02:01:01.084Z,0
2017-02-15T02:02:14.215Z,0
2017-02-15T02:03:27.311Z,0
2017-02-15T02:04:40.396Z,0
2017-02-15T02:05:53.503Z,0
2017-02-15T02:07:06.586Z,0
2017-02-15T02:08:19.628Z,0
2017-02-15T02:09:32.723Z,0
2017-02-15T02:10:46.094Z,0
2017-02-15T02:11:59.197Z,0
2017-02-15T02:13:12.279Z,0
2017-02-15T02:14:25.384Z,0
2017-02-15T02:15:38.084Z,0
2017-02-15T02:16:51.216Z,0
2017-02-15T02:18:04.328Z,0
2017-02-15T02:19:17.060Z,0
2017-02-15T02:20:30.142Z,0
2017-02-15T02:21:42.481Z,0
2017-02-15T02:22:55.578Z,0
2017-02-15T02:24:08.649Z,0
2017-02-15T02:25:21.770Z,0
2017-02-15T02:26:34.444Z,0
2017-02-15T02:27:47.535Z,0
2017-02-15T02:29:00.657Z,0
2017-02-15T02:30:13.808Z,0
2017-02-15T02:31:26.524Z,0
2017-02-15T02:32:39.243Z,0
2017-02-15T02:33:52.328Z,0
2017-02-15T02:35:05.461Z,0
2017-02-15T02:36:17.819Z,0
2017-02-15T02:37:30.512Z,0
2017-02-15T02:38:43.205Z,0
2017-02-15T02:39:55.945Z,0
2017-02-15T02:41:09.025Z,0
2017-02-15T02:42:21.754Z,0
2017-02-15T02:43:34.839Z,0
2017-02-15T02:44:47.985Z,0
2017-02-15T02:46:01.131Z,0
2017-02-15T02:47:14.252Z,0
2017-02-15T02:48:27.315Z,0
2017-02-15T02:49:40.435Z,0
2017-02-15T02:50:53.519Z,0
2017-02-15T02:52:06.652Z,0
2017-02-15T02:53:19.367Z,0
2017-02-15T02:54:32.432Z,0
2017-02-15T02:55:45.516Z,0
2017-02-15T02:56:58.630Z,0
2017-02-15T02:58:11.740Z,0
2017-02-15T02:59:24.809Z,0
2017-02-15T03:00:37.881Z,0
2017-02-15T03:01:50.993Z,0
2017-02-15T03:03:04.053Z,0
2017-02-15T03:04:17.169Z,0
2017-02-15T03:05:30.308Z,0
2017-02-15T03:06:43.010Z,0
2017-02-15T03:07:56.105Z,0
2017-02-15T03:09:09.201Z,0
2017-02-15T03:10:22.384Z,0
2017-02-15T03:11:35.486Z,0
2017-02-15T03:12:48.600Z,0
2017-02-15T03:14:01.690Z,0
2017-02-15T03:15:14.852Z,0
2017-02-15T03:16:27.970Z,0
2017-02-15T03:17:41.083Z,0
2017-02-15T03:18:54.162Z,0
2017-02-15T03:20:07.282Z,0
2017-02-15T03:21:20.180Z,0
2017-02-15T03:22:32.881Z,0
2017-02-15T03:23:45.189Z,0
2017-02-15T03:24:58.298Z,0
2017-02-15T03:26:11.437Z,0
2017-02-15T03:27:24.514Z,0
2017-02-15T03:28:37.578Z,0
2017-02-15T03:29:50.625Z,0
2017-02-15T03:31:03.678Z,0
2017-02-15T03:32:16.390Z,0
2017-02-15T03:33:29.563Z,0
2017-02-15T03:34:42.284Z,0
2017-02-15T03:35:55.329Z,0
2017-02-15T03:37:08.418Z,0
2017-02-15T03:38:21.540Z,0
2017-02-15T03:39:34.642Z,0
2017-02-15T03:40:47.720Z,0
2017-02-15T03:42:00.835Z,0
2017-02-15T03:43:13.581Z,0
2017-02-15T03:44:26.670Z,0
2017-02-15T03:45:39.445Z,0
2017-02-15T03:46:52.534Z,0
2017-02-15T03:48:05.663Z,0
2017-02-15T03:49:18.367Z,0
2017-02-15T03:50:31.480Z,0
2017-02-15T03:51:44.183Z,0
2017-02-15T03:52:57.296Z,0
2017-02-15T03:54:10.018Z,0
2017-02-15T03:55:22.323Z,0
2017-02-15T03:56:35.492Z,0
2017-02-15T03:57:48.556Z,0
2017-02-15T03:59:01.595Z,0
2017-02-15T04:00:14.294Z,0
2017-02-15T04:01:27.425Z,0
2017-02-15T04:02:40.557Z,0
2017-02-15T04:03:53.678Z,0
2017-02-15T04:05:06.414Z,0
2017-02-15T04:06:19.139Z,0
2017-02-15T04:07:32.278Z,0
2017-02-15T04:08:44.993Z,0
2017-02-15T04:09:58.071Z,0
2017-02-15T04:11:11.162Z,0
2017-02-15T04:12:24.280Z,0
2017-02-15T04:13:37.028Z,0
2017-02-15T04:14:50.157Z,0
2017-02-15T04:16:03.494Z,0
2017-02-15T04:17:16.591Z,0
2017-02-15T04:18:29.262Z,0
2017-02-15T04:19:42.318Z,0
2017-02-15T04:20:55.408Z,0
2017-02-15T04:22:08.506Z,0
2017-02-15T04:23:21.619Z,0
2017-02-15T04:24:34.717Z,0
2017-02-15T04:25:47.853Z,0
2017-02-15T04:27:00.983Z,0
2017-02-15T04:28:13.678Z,0
2017-02-15T04:29:26.397Z,0
2017-02-15T04:30:39.163Z,0
2017-02-15T04:31:51.496Z,0
2017-02-15T04:33:04.529Z,0
2017-02-15T04:34:17.215Z,0
2017-02-15T04:35:30.309Z,0
2017-02-15T04:36:43.399Z,0
2017-02-15T04:37:56.538Z,0
2017-02-15T04:39:09.660Z,0
2017-02-15T04:40:22.379Z,0
2017-02-15T04:41:35.483Z,0
2017-02-15T04:42:48.585Z,0
2017-02-15T04:44:01.701Z,0
2017-02-15T04:45:14.412Z,0
2017-02-15T04:46:27.466Z,0
2017-02-15T04:47:40.563Z,0
2017-02-15T04:48:53.702Z,0
2017-02-15T04:50:06.823Z,0
2017-02-15T04:51:19.524Z,0
2017-02-15T04:52:32.620Z,0
2017-02-15T04:53:45.724Z,0
2017-02-15T04:54:58.821Z,0
2017-02-15T04:56:11.959Z,0
2017-02-15T04:57:24.681Z,0
2017-02-15T04:58:37.758Z,0
2017-02-15T04:59:51.147Z,0
2017-02-15T05:01:04.268Z,0
2017-02-15T05:02:17.361Z,0
2017-02-15T05:03:30.460Z,0
2017-02-15T05:04:43.572Z,0
2017-02-15T05:05:56.650Z,0
2017-02-15T05:07:09.779Z,0
2017-02-15T05:08:22.494Z,0
2017-02-15T05:09:35.637Z,0
2017-02-15T05:10:48.752Z,0
2017-02-15T05:12:01.834Z,0
2017-02-15T05:13:14.508Z,0
2017-02-15T05:14:27.601Z,0
2017-02-15T05:15:40.302Z,0
2017-02-15T05:16:53.401Z,0
2017-02-15T05:18:06.526Z,0
2017-02-15T05:19:19.223Z,0
2017-02-15T05:20:31.933Z,0
2017-02-15T05:21:44.646Z,0
2017-02-15T05:22:57.768Z,0
2017-02-15T05:24:10.897Z,0
2017-02-15T05:25:23.618Z,0
2017-02-15T05:26:36.763Z,0
2017-02-15T05:27:49.833Z,0
2017-02-15T05:29:02.554Z,0
2017-02-15T05:30:15.662Z,0
2017-02-15T05:31:28.745Z,0
2017-02-15T05:32:41.840Z,0
2017-02-15T05:33:54.568Z,0
2017-02-15T05:35:07.669Z,0
2017-02-15T05:36:20.749Z,0
2017-02-15T05:37:34.131Z,0
2017-02-15T05:38:46.872Z,0
2017-02-15T05:39:59.973Z,0
2017-02-15T05:41:13.073Z,0
2017-02-15T05:42:25.788Z,0
2017-02-15T05:43:38.851Z,0
2017-02-15T05:44:51.926Z,0
2017-02-15T05:46:05.041Z,0
2017-02-15T05:47:17.343Z,0
2017-02-15T05:48:30.424Z,0
2017-02-15T05:49:43.547Z,0
2017-02-15T05:50:56.608Z,0
2017-02-15T05:52:09.693Z,0
2017-02-15T05:53:22.391Z,0
2017-02-15T05:54:35.087Z,0
2017-02-15T05:55:47.781Z,0
2017-02-15T05:57:00.927Z,0
2017-02-15T05:58:13.646Z,0
2017-02-15T05:59:26.651Z,0
2017-02-15T06:00:39.714Z,0
2017-02-15T06:01:52.433Z,0
2017-02-15T06:03:05.535Z,0
2017-02-15T06:04:17.886Z,0
2017-02-15T06:05:31.007Z,0
2017-02-15T06:06:44.102Z,0
2017-02-15T06:07:57.214Z,0
2017-02-15T06:09:10.298Z,0
2017-02-15T06:10:23.440Z,5
2017-02-15T06:11:36.129Z,5
2017-02-15T06:12:48.817Z,5
2017-02-15T06:14:01.914Z,5
2017-02-15T06:15:15.023Z,5
2017-02-15T06:16:28.129Z,10
2017-02-15T06:17:40.764Z,10
2017-02-15T06:18:53.867Z,10
2017-02-15T06:20:06.648Z,10
2017-02-15T06:21:19.388Z,15
2017-02-15T06:22:32.442Z,15
2017-02-15T06:23:45.563Z,15
2017-02-15T06:24:58.665Z,20
2017-02-15T06:26:11.996Z,20
2017-02-15T06:27:25.093Z,20
2017-02-15T06:28:38.197Z,25
2017-02-15T06:29:50.874Z,25
2017-02-15T06:31:03.944Z,30
2017-02-15T06:32:17.060Z,30
2017-02-15T06:33:30.161Z,35
2017-02-15T06:34:43.303Z,35
2017-02-15T06:35:56.028Z,40
2017-02-15T06:37:09.093Z,40
2017-02-15T06:38:22.139Z,45
2017-02-15T06:39:35.235Z,45
2017-02-15T06:40:48.380Z,50
2017-02-15T06:42:01.476Z,50
2017-02-15T06:43:14.572Z,55
2017-02-15T06:44:27.669Z,55
2017-02-15T06:45:40.757Z,60
2017-02-15T06:46:53.859Z,60
2017-02-15T06:48:06.954Z,65
2017-02-15T06:49:19.651Z,65
2017-02-15T06:50:32.722Z,70
2017-02-15T06:51:45.840Z,70
2017-02-15T06:52:58.938Z,75
2017-02-15T06:54:11.678Z,75
2017-02-15T06:55:24.760Z,80
2017-02-15T06:56:37.830Z,80
2017-02-15T06:57:50.929Z,85
2017-02-15T06:59:04.025Z,90
2017-02-15T07:00:17.156Z,90
2017-02-15T07:01:30.263Z,90
2017-02-15T07:02:43.415Z,95
2017-02-15T07:03:56.475Z,95
2017-02-15T07:05:09.572Z,100
2017-02-15T07:06:21.886Z,100
2017-02-15T07:07:34.582Z,105
2017-02-15T07:08:47.666Z,105
2017-02-15T07:10:00.799Z,110
2017-02-15T07:11:13.495Z,110
2017-02-15T07:12:26.589Z,110
2017-02-15T07:13:39.695Z,115
2017-02-15T07:14:52.396Z,120
2017-02-15T07:16:05.503Z,120
2017-02-15T07:17:18.613Z,120
2017-02-15T07:18:31.728Z,125
2017-02-15T07:19:45.030Z,125
2017-02-15T07:20:58.171Z,130
2017-02-15T07:22:10.889Z,130
2017-02-15T07:23:23.598Z,130
2017-02-15T07:24:35.930Z,135
2017-02-15T07:25:49.029Z,135
2017-02-15T07:27:02.122Z,140
2017-02-15T07:28:15.251Z,140
2017-02-15T07:29:28.347Z,145
2017-02-15T07:30:41.492Z,145
2017-02-15T07:31:54.213Z,145
2017-02-15T07:33:07.370Z,150
2017-02-15T07:34:20.472Z,150
2017-02-15T07:35:33.570Z,150
2017-02-15T07:36:46.647Z,155
2017-02-15T07:37:59.322Z,155
2017-02-15T07:39:12.382Z,155
2017-02-15T07:40:25.130Z,155
2017-02-15T07:41:38.510Z,155
2017-02-15T07:42:51.613Z,160
2017-02-15T07:44:04.689Z,160
2017-02-15T07:45:17.779Z,165
2017-02-15T07:46:30.858Z,165
2017-02-15T07:47:43.960Z,165
2017-02-15T07:48:57.041Z,170
2017-02-15T07:50:10.111Z,170
2017-02-15T07:51:23.203Z,175
2017-02-15T07:52:36.363Z,175
2017-02-15T07:53:49.466Z,175
2017-02-15T07:55:02.629Z,180
2017-02-15T07:56:15.706Z,180
2017-02-15T07:57:28.800Z,180
2017-02-15T07:58:41.872Z,185
2017-02-15T07:59:55.018Z,185
2017-02-15T08:01:08.104Z,185
2017-02-15T08:02:20.433Z,190
2017-02-15T08:03:33.791Z,190
2017-02-15T08:04:46.845Z,190
2017-02-15T08:05:59.942Z,190
2017-02-15T08:07:13.067Z,195
2017-02-15T08:08:25.764Z,195
2017-02-15T08:09:38.877Z,195
2017-02-15T08:10:51.949Z,190
2017-02-15T08:12:05.068Z,195
2017-02-15T08:13:18.150Z,195
2017-02-15T08:14:31.293Z,195
2017-02-15T08:15:44.356Z,195
2017-02-15T08:16:57.064Z,195
2017-02-15T08:18:10.149Z,200
2017-02-15T08:19:23.172Z,200
2017-02-15T08:20:36.267Z,200
2017-02-15T08:21:49.443Z,200
2017-02-15T08:23:02.156Z,205
2017-02-15T08:24:15.298Z,205
2017-02-15T08:25:28.416Z,205
2017-02-15T08:26:41.151Z,205
2017-02-15T08:27:54.266Z,205
2017-02-15T08:29:07.335Z,205
2017-02-15T08:30:20.458Z,205
2017-02-15T08:31:33.584Z,205
2017-02-15T08:32:46.349Z,210
2017-02-15T08:33:59.506Z,210
2017-02-15T08:35:12.222Z,210
2017-02-15T08:36:24.937Z,210
2017-02-15T08:37:38.063Z,210
2017-02-15T08:38:51.157Z,210
2017-02-15T08:40:04.275Z,210
2017-02-15T08:41:17.392Z,215
2017-02-15T08:42:30.547Z,215
2017-02-15T08:43:43.262Z,215
2017-02-15T08:44:55.968Z,215
2017-02-15T08:46:09.084Z,215
2017-02-15T08:47:21.425Z,215
2017-02-15T08:48:34.521Z,220
2017-02-15T08:49:47.598Z,220
2017-02-15T08:51:00.722Z,220
2017-02-15T08:52:13.846Z,220
2017-02-15T08:53:26.963Z,220
2017-02-15T08:54:39.656Z,220
2017-02-15T08:55:52.792Z,220
2017-02-15T08:57:05.109Z,220
2017-02-15T08:58:17.853Z,220
2017-02-15T08:59:30.950Z,220
2017-02-15T09:00:44.039Z,225
2017-02-15T09:01:57.149Z,225
2017-02-15T09:03:10.274Z,225
2017-02-15T09:04:22.973Z,220
2017-02-15T09:05:36.069Z,225
2017-02-15T09:06:49.184Z,230
2017-02-15T09:08:02.278Z,225
2017-02-15T09:09:14.981Z,225
2017-02-15T09:10:28.079Z,225
2017-02-15T09:11:41.242Z,225
2017-02-15T09:12:54.355Z,230
2017-02-15T09:14:07.454Z,230
2017-02-15T09:15:20.576Z,230
2017-02-15T09:16:33.324Z,230
2017-02-15T09:17:46.421Z,230
2017-02-15T09:18:59.503Z,230
2017-02-15T09:20:12.623Z,235
2017-02-15T09:21:25.734Z,235
2017-02-15T09:22:38.828Z,235
2017-02-15T09:23:51.983Z,235
2017-02-15T09:25:05.069Z,235
2017-02-15T09:26:17.392Z,235
2017-02-15T09:27:30.481Z,235
2017-02-15T09:28:43.152Z,235
2017-02-15T09:29:56.213Z,235
2017-02-15T09:31:09.351Z,235
2017-02-15T09:32:22.054Z,235
2017-02-15T09:33:35.173Z,245
2017-02-15T09:34:48.312Z,235
2017-02-15T09:36:01.435Z,240
2017-02-15T09:37:14.597Z,240
2017-02-15T09:38:27.717Z,245
2017-02-15T09:39:40.827Z,245
2017-02-15T09:40:53.975Z,245
2017-02-15T09:42:07.130Z,245
2017-02-15T09:43:19.809Z,245
2017-02-15T09:44:32.926Z,245
2017-02-15T09:45:46.048Z,245
2017-02-15T09:46:58.795Z,250
2017-02-15T09:48:11.516Z,245
2017-02-15T09:49:24.613Z,250
2017-02-15T09:50:37.364Z,245
2017-02-15T09:51:50.454Z,245
2017-02-15T09:53:03.573Z,245
2017-02-15T09:54:16.308Z,245
2017-02-15T09:55:29.425Z,245
2017-02-15T09:56:42.545Z,245
2017-02-15T09:57:55.533Z,245
2017-02-15T09:59:08.636Z,250
2017-02-15T10:00:21.400Z,245
2017-02-15T10:01:34.121Z,245
2017-02-15T10:02:47.219Z,245
2017-02-15T10:03:59.913Z,245
2017-02-15T10:05:13.006Z,250
2017-02-15T10:06:26.147Z,250
2017-02-15T10:07:39.268Z,250
2017-02-15T10:08:52.402Z,250
2017-02-15T10:10:05.117Z,250
2017-02-15T10:11:18.194Z,250
2017-02-15T10:12:31.266Z,250
2017-02-15T10:13:44.380Z,250
2017-02-15T10:14:57.475Z,250
2017-02-15T10:16:10.607Z,250
2017-02-15T10:17:23.743Z,250
2017-02-15T10:18:36.471Z,250
2017-02-15T10:19:49.577Z,250
2017-02-15T10:21:02.680Z,250
2017-02-15T10:22:15.405Z,255
2017-02-15T10:23:28.546Z,250
2017-02-15T10:24:41.674Z,250
2017-02-15T10:25:54.763Z,255
2017-02-15T10:27:07.860Z,255
2017-02-15T10:28:20.552Z,255
2017-02-15T10:29:33.676Z,255
2017-02-15T10:30:46.797Z,255
2017-02-15T10:31:59.576Z,255
2017-02-15T10:33:12.687Z,255
2017-02-15T10:34:25.422Z,260
2017-02-15T10:35:38.556Z,260
2017-02-15T10:36:51.633Z,260
2017-02-15T10:38:04.748Z,260
2017-02-15T10:39:17.476Z,265
2017-02-15T10:40:30.557Z,265
2017-02-15T10:41:43.659Z,265
2017-02-15T10:42:56.792Z,265
2017-02-15T10:44:09.556Z,260
2017-02-15T10:45:22.632Z,260
2017-02-15T10:46:35.368Z,260
2017-02-15T10:47:48.115Z,260
2017-02-15T10:49:01.203Z,260
2017-02-15T10:50:13.905Z,260
2017-02-15T10:51:26.685Z,265
2017-02-15T10:52:39.424Z,265
2017-02-15T10:53:52.551Z,265
2017-02-15T10:55:05.291Z,265
2017-02-15T10:56:18.062Z,265
2017-02-15T10:57:30.764Z,270
2017-02-15T10:58:43.859Z,270
2017-02-15T10:59:57.007Z,270
2017-02-15T11:01:10.127Z,270
2017-02-15T11:02:23.247Z,270
2017-02-15T11:03:35.217Z,270
2017-02-15T11:04:47.982Z,270
2017-02-15T11:06:01.130Z,270
2017-02-15T11:07:14.256Z,265
2017-02-15T11:08:27.331Z,265
2017-02-15T11:09:40.463Z,265
2017-02-15T11:10:53.636Z,265
2017-02-15T11:12:06.731Z,265
2017-02-15T11:13:19.447Z,265
2017-02-15T11:14:32.599Z,265
2017-02-15T11:15:45.287Z,265
2017-02-15T11:16:58.424Z,270
2017-02-15T11:18:11.587Z,265
2017-02-15T11:19:24.708Z,270
2017-02-15T11:20:37.842Z,270
2017-02-15T11:21:50.974Z,270
2017-02-15T11:23:04.133Z,265
2017-02-15T11:24:16.898Z,265
2017-02-15T11:25:30.037Z,265
2017-02-15T11:26:43.141Z,265
2017-02-15T11:27:55.831Z,265
2017-02-15T11:29:08.925Z,265
2017-02-15T11:30:22.044Z,265
2017-02-15T11:31:34.811Z,265
2017-02-15T11:32:47.893Z,265
2017-02-15T11:34:00.614Z,265
2017-02-15T11:35:13.379Z,265
2017-02-15T11:36:26.554Z,270
2017-02-15T11:37:39.638Z,270
2017-02-15T11:38:52.745Z,270
2017-02-15T11:40:05.089Z,270
2017-02-15T11:41:17.760Z,270
2017-02-15T11:42:30.905Z,270
2017-02-15T11:43:44.032Z,275
2017-02-15T11:44:57.154Z,270
2017-02-15T11:46:09.502Z,265
2017-02-15T11:47:22.240Z,265
2017-02-15T11:48:35.341Z,265
2017-02-15T11:49:48.456Z,270
2017-02-15T11:51:01.576Z,270
2017-02-15T11:52:13.941Z,270
2017-02-15T11:53:27.076Z,270
2017-02-15T11:54:40.221Z,270
2017-02-15T11:55:53.336Z,265
2017-02-15T11:57:06.424Z,265
2017-02-15T11:58:19.145Z,265
2017-02-15T11:59:31.904Z,265
2017-02-15T12:00:44.303Z,265
2017-02-15T12:01:57.423Z,260
2017-02-15T12:03:10.543Z,260
2017-02-15T12:04:23.275Z,260
2017-02-15T12:05:36.401Z,260
2017-02-15T12:06:49.135Z,260
2017-02-15T12:08:01.849Z,260
2017-02-15T12:09:14.633Z,260
2017-02-15T12:10:27.754Z,260
2017-02-15T12:11:40.851Z,260
2017-02-15T12:12:53.953Z,265
2017-02-15T12:14:07.056Z,265
2017-02-15T12:15:19.801Z,265
2017-02-15T12:16:32.942Z,260
2017-02-15T12:17:46.085Z,255
2017-02-15T12:18:59.206Z,255
2017-02-15T12:20:12.303Z,255
2017-02-15T12:21:25.450Z,255
2017-02-15T12:22:38.607Z,255
2017-02-15T12:23:51.767Z,255
2017-02-15T12:25:04.867Z,255
2017-02-15T12:26:17.557Z,255
2017-02-15T12:27:30.634Z,255
2017-02-15T12:28:43.752Z,255
2017-02-15T12:29:56.870Z,250
2017-02-15T12:31:09.665Z,255
2017-02-15T12:32:22.397Z,255
2017-02-15T12:33:35.490Z,255
2017-02-15T12:34:48.635Z,255
2017-02-15T12:36:01.773Z,255
2017-02-15T12:37:14.547Z,255
2017-02-15T12:38:27.698Z,255
2017-02-15T12:39:40.796Z,250
2017-02-15T12:40:53.901Z,250
2017-02-15T12:42:07.025Z,255
2017-02-15T12:43:19.732Z,255
2017-02-15T12:44:32.903Z,255
2017-02-15T12:45:45.992Z,255
2017-02-15T12:46:59.096Z,255
2017-02-15T12:48:12.209Z,250
2017-02-15T12:49:25.304Z,250
2017-02-15T12:50:38.432Z,250
2017-02-15T12:51:51.564Z,245
2017-02-15T12:53:04.283Z,245
2017-02-15T12:54:17.393Z,250
2017-02-15T12:55:30.533Z,245
2017-02-15T12:56:43.636Z,245
2017-02-15T12:57:56.769Z,245
2017-02-15T12:59:09.479Z,245
2017-02-15T13:00:22.595Z,245
2017-02-15T13:01:35.730Z,245
2017-02-15T13:02:48.808Z,245
2017-02-15T13:04:01.948Z,250
2017-02-15T13:05:15.068Z,245
2017-02-15T13:06:28.203Z,245
2017-02-15T13:07:41.342Z,245
2017-02-15T13:08:54.470Z,245
2017-02-15T13:10:07.202Z,245
2017-02-15T13:11:19.897Z,240
2017-02-15T13:12:33.074Z,240
2017-02-15T13:13:46.220Z,240
2017-02-15T13:14:59.374Z,235
2017-02-15T13:16:12.445Z,235
2017-02-15T13:17:25.541Z,235
2017-02-15T13:18:38.231Z,235
2017-02-15T13:19:51.300Z,235
2017-02-15T13:21:04.390Z,235
2017-02-15T13:22:17.124Z,240
2017-02-15T13:23:29.867Z,235
2017-02-15T13:24:42.651Z,235
2017-02-15T13:25:55.363Z,230
2017-02-15T13:27:08.501Z,230
2017-02-15T13:28:21.206Z,230
2017-02-15T13:29:33.970Z,230
2017-02-15T13:30:47.070Z,230
2017-02-15T13:31:59.785Z,230
2017-02-15T13:33:12.506Z,230
2017-02-15T13:34:25.659Z,230
2017-02-15T13:35:38.775Z,225
2017-02-15T13:36:51.913Z,225
2017-02-15T13:38:05.057Z,225
2017-02-15T13:39:17.792Z,225
2017-02-15T13:40:30.939Z,225
2017-02-15T13:41:44.359Z,220
2017-02-15T13:42:57.473Z,220
2017-02-15T13:44:10.169Z,220
2017-02-15T13:45:23.292Z,220
2017-02-15T13:46:36.379Z,220
2017-02-15T13:47:49.483Z,220
2017-02-15T13:49:02.601Z,220
2017-02-15T13:50:15.330Z,215
2017-02-15T13:51:28.476Z,215
2017-02-15T13:52:41.592Z,215
2017-02-15T13:53:54.696Z,215
2017-02-15T13:55:07.804Z,210
2017-02-15T13:56:20.146Z,210
2017-02-15T13:57:33.256Z,210
2017-02-15T13:58:46.427Z,210
2017-02-15T13:59:59.589Z,210
2017-02-15T14:01:12.760Z,210
2017-02-15T14:02:25.149Z,210
2017-02-15T14:03:37.901Z,205
2017-02-15T14:04:51.006Z,205
2017-02-15T14:06:04.177Z,205
2017-02-15T14:07:16.915Z,205
2017-02-15T14:08:29.719Z,205
2017-02-15T14:09:42.834Z,205
2017-02-15T14:10:55.997Z,205
2017-02-15T14:12:09.114Z,205
2017-02-15T14:13:21.822Z,205
2017-02-15T14:14:34.553Z,205
2017-02-15T14:15:47.318Z,200
2017-02-15T14:17:00.451Z,200
2017-02-15T14:18:13.552Z,200
2017-02-15T14:19:26.947Z,200
2017-02-15T14:20:39.738Z,200
2017-02-15T14:21:52.839Z,200
2017-02-15T14:23:05.187Z,200
2017-02-15T14:24:18.333Z,195
2017-02-15T14:25:31.472Z,195
2017-02-15T14:26:44.594Z,190
2017-02-15T14:27:57.740Z,190
2017-02-15T14:29:10.516Z,190
2017-02-15T14:30:22.892Z,190
2017-02-15T14:31:36.001Z,190
2017-02-15T14:32:49.084Z,190
2017-02-15T14:34:02.251Z,185
2017-02-15T14:35:14.972Z,185
2017-02-15T14:36:27.719Z,185
2017-02-15T14:37:40.489Z,185
2017-02-15T14:38:53.590Z,180
2017-02-15T14:40:06.723Z,180
2017-02-15T14:41:19.500Z,180
2017-02-15T14:42:32.629Z,175
2017-02-15T14:43:45.320Z,175
2017-02-15T14:44:58.064Z,175
2017-02-15T14:46:10.816Z,175
2017-02-15T14:47:23.912Z,170
2017-02-15T14:48:36.657Z,170
2017-02-15T14:49:49.754Z,170
2017-02-15T14:51:02.449Z,170
2017-02-15T14:52:15.543Z,165
2017-02-15T14:53:28.618Z,165
2017-02-15T14:54:41.763Z,165
2017-02-15T14:55:54.912Z,160
2017-02-15T14:57:08.031Z,160
2017-02-15T14:58:20.751Z,160
2017-02-15T14:59:33.890Z,155
2017-02-15T15:00:47.011Z,155
2017-02-15T15:02:00.160Z,155
2017-02-15T15:03:12.853Z,150
2017-02-15T15:04:25.205Z,150
2017-02-15T15:05:38.361Z,150
2017-02-15T15:06:50.289Z,145
2017-02-15T15:08:03.434Z,145
2017-02-15T15:09:15.764Z,150
2017-02-15T15:10:28.920Z,140
2017-02-15T15:11:41.574Z,140
2017-02-15T15:12:54.720Z,140
2017-02-15T15:14:07.446Z,135
2017-02-15T15:15:20.562Z,135
2017-02-15T15:16:33.656Z,130
2017-02-15T15:17:46.731Z,130
2017-02-15T15:18:59.827Z,130
2017-02-15T15:20:12.556Z,125
2017-02-15T15:21:25.748Z,125
2017-02-15T15:22:38.885Z,120
2017-02-15T15:23:51.630Z,120
2017-02-15T15:25:04.722Z,120
2017-02-15T15:26:17.473Z,115
2017-02-15T15:27:30.647Z,115
2017-02-15T15:28:43.365Z,110
2017-02-15T15:29:56.481Z,110
2017-02-15T15:31:09.608Z,105
2017-02-15T15:32:22.704Z,105
2017-02-15T15:33:35.788Z,100
2017-02-15T15:34:48.926Z,100
2017-02-15T15:36:02.068Z,95
2017-02-15T15:37:15.162Z,95
2017-02-15T15:38:28.276Z,95
2017-02-15T15:39:41.355Z,95
2017-02-15T15:40:54.301Z,90
2017-02-15T15:42:07.395Z,90
2017-02-15T15:43:20.199Z,85
2017-02-15T15:44:32.954Z,85
2017-02-15T15:45:46.065Z,80
2017-02-15T15:46:58.860Z,80
2017-02-15T15:48:11.991Z,75
2017-02-15T15:49:25.087Z,75
2017-02-15T15:50:37.797Z,70
2017-02-15T15:51:50.918Z,70
2017-02-15T15:53:04.059Z,65
2017-02-15T15:54:16.414Z,60
2017-02-15T15:55:29.526Z,60
2017-02-15T15:56:42.273Z,55
2017-02-15T15:57:55.370Z,55
2017-02-15T15:59:08.501Z,50
2017-02-15T16:00:21.655Z,50
2017-02-15T16:01:33.959Z,45
2017-02-15T16:02:47.071Z,45
2017-02-15T16:03:59.836Z,40
2017-02-15T16:05:12.921Z,40
2017-02-15T16:06:26.028Z,35
2017-02-15T16:07:39.110Z,35
2017-02-15T16:08:52.214Z,30
2017-02-15T16:10:05.358Z,30
2017-02-15T16:11:18.470Z,25
2017-02-15T16:12:31.575Z,25
2017-02-15T16:13:44.719Z,20
2017-02-15T16:14:57.816Z,20
2017-02-15T16:16:10.522Z,20
2017-02-15T16:17:23.624Z,15
2017-02-15T16:18:36.588Z,15
2017-02-15T16:19:49.271Z,15
2017-02-15T16:21:02.386Z,10
2017-02-15T16:22:15.488Z,10
2017-02-15T16:23:28.640Z,10
2017-02-15T16:24:41.750Z,10
2017-02-15T16:25:54.412Z,5
2017-02-15T16:27:07.122Z,5
2017-02-15T16:28:19.878Z,5
2017-02-15T16:29:32.988Z,5
2017-02-15T16:30:46.121Z,5
2017-02-15T16:31:58.467Z,0
2017-02-15T16:33:11.612Z,0
2017-02-15T16:34:24.298Z,0
2017-02-15T16:35:37.062Z,0
2017-02-15T16:36:50.205Z,0
2017-02-15T16:38:03.370Z,0
2017-02-15T16:39:16.448Z,0
2017-02-15T16:40:29.601Z,0
2017-02-15T16:41:42.734Z,0
2017-02-15T16:42:55.887Z,0
2017-02-15T16:44:09.000Z,0
2017-02-15T16:45:21.709Z,0
2017-02-15T16:46:34.433Z,0
2017-02-15T16:47:47.520Z,0
2017-02-15T16:49:00.623Z,0
2017-02-15T16:50:13.742Z,0
2017-02-15T16:51:26.857Z,0
2017-02-15T16:52:39.926Z,0
2017-02-15T16:53:53.041Z,0
2017-02-15T16:55:06.213Z,0
2017-02-15T16:56:18.942Z,0
2017-02-15T16:57:32.079Z,0
2017-02-15T16:58:45.224Z,0
2017-02-15T16:59:58.363Z,0
2017-02-15T17:01:11.467Z,0
2017-02-15T17:02:24.563Z,0
2017-02-15T17:03:37.657Z,0
2017-02-15T17:04:50.760Z,0
2017-02-15T17:06:03.908Z,0
2017-02-15T17:07:17.055Z,0
2017-02-15T17:08:30.184Z,0
2017-02-15T17:09:42.996Z,0
2017-02-15T17:10:55.696Z,0
2017-02-15T17:12:08.443Z,0
2017-02-15T17:13:21.632Z,0
2017-02-15T17:14:34.761Z,0
2017-02-15T17:15:47.875Z,0
2017-02-15T17:17:01.019Z,0
2017-02-15T17:18:13.732Z,0